createdAt,value
2022-11-05T00:00:15.133Z,8.70
2022-11-05T00:05:56.889Z,8.70
2022-11-05T00:11:00.485Z,8.60
2022-11-05T00:16:42.097Z,8.60
2022-11-05T00:22:04.042Z,8.60
2022-11-05T00:27:08.006Z,8.60
2022-11-05T00:32:11.449Z,8.70
2022-11-05T00:37:15.109Z,8.60
2022-11-05T00:42:37.388Z,8.70
2022-11-05T00:48:03.937Z,8.70
2022-11-05T00:53:09.209Z,8.70
2022-11-05T00:58:18.411Z,8.70
2022-11-05T01:03:24.528Z,8.70
2022-11-05T01:08:28.728Z,8.70
2022-11-05T01:13:32.385Z,8.70
2022-11-05T01:18:38.749Z,8.70
2022-11-05T01:23:42.088Z,8.70
2022-11-05T01:28:45.311Z,8.70
2022-11-05T01:33:48.826Z,8.70
2022-11-05T01:38:51.988Z,8.70
2022-11-05T01:43:57.771Z,8.70
2022-11-05T01:49:27.310Z,8.70
2022-11-05T01:54:33.749Z,8.70
2022-11-05T01:59:44.784Z,8.70
2022-11-05T02:04:55.152Z,8.70
2022-11-05T02:10:07.100Z,8.70
2022-11-05T02:15:16.170Z,8.70
2022-11-05T02:20:41.090Z,8.70
2022-11-05T02:25:47.256Z,8.70
2022-11-05T02:30:54.689Z,8.70
2022-11-05T02:36:24.487Z,8.70
2022-11-05T02:41:49.569Z,8.70
2022-11-05T02:47:18.263Z,8.80
2022-11-05T02:52:38.270Z,8.80
2022-11-05T02:57:46.392Z,8.80
2022-11-05T03:02:50.268Z,8.70
2022-11-05T03:08:00.229Z,8.70
2022-11-05T03:13:46.770Z,8.80
2022-11-05T03:19:04.049Z,8.70
2022-11-05T03:24:25.018Z,8.80
2022-11-05T03:29:38.156Z,8.80
2022-11-05T03:34:50.397Z,8.80
2022-11-05T03:39:59.330Z,8.80
2022-11-05T03:45:10.171Z,8.90
2022-11-05T03:50:41.473Z,8.80
2022-11-05T03:56:03.451Z,8.90
2022-11-05T04:01:07.216Z,9.00
2022-11-05T04:06:29.828Z,9.00
2022-11-05T04:11:51.528Z,9.10
2022-11-05T04:17:10.489Z,9.10
2022-11-05T04:22:32.532Z,9.10
2022-11-05T04:27:36.628Z,9.10
2022-11-05T04:32:40.014Z,9.10
2022-11-05T04:37:43.319Z,9.20
2022-11-05T04:42:46.818Z,9.10
2022-11-05T04:47:50.358Z,9.10
2022-11-05T04:52:53.823Z,9.10
2022-11-05T04:57:57.114Z,9.10
2022-11-05T05:03:01.184Z,9.10
2022-11-05T05:08:05.425Z,9.10
2022-11-05T05:13:11.324Z,9.10
2022-11-05T05:18:14.921Z,9.10
2022-11-05T05:23:18.388Z,9.10
2022-11-05T05:28:21.737Z,9.10
2022-11-05T05:33:25.087Z,9.10
2022-11-05T05:38:29.149Z,9.10
2022-11-05T05:43:34.009Z,9.10
2022-11-05T05:48:37.515Z,9.10
2022-11-05T05:53:40.753Z,9.20
2022-11-05T05:58:44.266Z,9.10
2022-11-05T06:03:48.985Z,9.10
2022-11-05T06:08:52.288Z,9.10
2022-11-05T06:13:56.072Z,9.20
2022-11-05T06:18:59.478Z,9.20
2022-11-05T06:24:04.009Z,9.10
2022-11-05T06:29:07.744Z,9.10
2022-11-05T06:34:11.127Z,9.20
2022-11-05T06:39:14.575Z,9.20
2022-11-05T06:44:17.967Z,9.20
2022-11-05T06:49:25.166Z,9.30
2022-11-05T06:54:28.854Z,9.30
2022-11-05T06:59:32.054Z,9.30
2022-11-05T07:04:35.436Z,9.40
2022-11-05T07:09:41.132Z,9.40
2022-11-05T07:14:44.450Z,9.40
2022-11-05T07:19:47.744Z,9.40
2022-11-05T07:24:51.198Z,9.40
2022-11-05T07:29:54.556Z,9.40
2022-11-05T07:34:58.159Z,9.40
2022-11-05T07:40:01.477Z,9.50
2022-11-05T07:45:05.758Z,9.50
2022-11-05T07:50:10.478Z,9.50
2022-11-05T07:55:14.099Z,9.50
2022-11-05T08:00:22.825Z,9.60
2022-11-05T08:05:26.458Z,9.50
2022-11-05T08:10:29.868Z,9.50
2022-11-05T08:15:33.820Z,9.50
2022-11-05T08:20:37.505Z,9.50
2022-11-05T08:25:41.190Z,9.60
2022-11-05T08:30:44.760Z,9.60
2022-11-05T08:35:48.635Z,9.60
2022-11-05T08:40:57.925Z,9.60
2022-11-05T08:46:02.367Z,9.60
2022-11-05T08:51:07.184Z,9.60
2022-11-05T08:56:10.545Z,9.70
2022-11-05T09:01:14.047Z,9.60
2022-11-05T09:06:18.358Z,9.70
2022-11-05T09:11:21.618Z,9.70
2022-11-05T09:16:27.527Z,9.70
2022-11-05T09:21:31.396Z,9.80
2022-11-05T09:26:35.397Z,9.90
2022-11-05T09:31:40.879Z,9.90
2022-11-05T09:36:44.537Z,10.00
2022-11-05T09:41:49.852Z,9.90
2022-11-05T09:46:59.537Z,9.90
2022-11-05T09:52:03.426Z,10.00
2022-11-05T09:57:11.499Z,10.00
2022-11-05T10:02:28.162Z,10.00
2022-11-05T10:07:37.249Z,10.10
2022-11-05T10:12:48.090Z,10.10
2022-11-05T10:17:59.747Z,10.10
2022-11-05T10:23:14.938Z,10.10
2022-11-05T10:28:21.727Z,10.20
2022-11-05T10:34:05.889Z,10.30
2022-11-05T10:39:18.646Z,10.30
2022-11-05T10:44:39.509Z,10.40
2022-11-05T10:50:00.141Z,10.40
2022-11-05T10:55:30.086Z,10.40
2022-11-05T11:00:33.326Z,10.50
2022-11-05T11:05:39.473Z,10.50
2022-11-05T11:10:53.485Z,10.50
2022-11-05T11:16:15.459Z,10.40
2022-11-05T11:21:21.082Z,10.40
2022-11-05T11:26:27.692Z,10.40
2022-11-05T11:31:34.047Z,10.30
2022-11-05T11:36:45.278Z,10.30
2022-11-05T11:41:58.015Z,10.30
2022-11-05T11:47:10.428Z,10.30
2022-11-05T11:52:19.126Z,10.30
2022-11-05T11:57:26.496Z,10.40
2022-11-05T12:02:48.017Z,10.40
2022-11-05T12:07:53.637Z,10.30
2022-11-05T12:12:59.849Z,10.40
2022-11-05T12:18:06.348Z,10.30
2022-11-05T12:23:22.387Z,10.30
2022-11-05T12:29:17.874Z,10.40
2022-11-05T12:34:35.799Z,10.30
2022-11-05T12:39:51.577Z,10.30
2022-11-05T12:45:19.664Z,10.30
2022-11-05T12:50:28.942Z,10.40
2022-11-05T12:55:47.135Z,10.40
2022-11-05T13:01:27.799Z,10.30
2022-11-05T13:06:42.799Z,10.40
2022-11-05T13:12:11.999Z,10.40
2022-11-05T13:17:26.286Z,10.40
2022-11-05T13:22:38.225Z,10.50
2022-11-05T13:28:07.427Z,10.50
2022-11-05T13:33:23.375Z,10.50
2022-11-05T13:38:46.829Z,10.50
2022-11-05T13:44:15.268Z,10.50
2022-11-05T13:49:33.202Z,10.50
2022-11-05T13:54:54.367Z,10.50
2022-11-05T14:00:12.678Z,10.50
2022-11-05T14:05:35.426Z,10.40
2022-11-05T14:11:05.087Z,10.40
2022-11-05T14:16:20.732Z,10.40
2022-11-05T14:21:26.880Z,10.40
2022-11-05T14:26:33.513Z,10.40
2022-11-05T14:37:13.161Z,10.30
2022-11-05T14:42:22.757Z,10.30
2022-11-05T14:47:29.799Z,10.30
2022-11-05T14:52:34.648Z,10.40
2022-11-05T14:57:44.482Z,10.30
2022-11-05T15:03:01.908Z,10.30
2022-11-05T15:08:27.208Z,10.30
2022-11-05T15:13:39.327Z,10.30
2022-11-05T15:18:47.489Z,10.20
2022-11-05T15:23:55.126Z,10.20
2022-11-05T15:28:59.317Z,10.20
2022-11-05T15:34:26.046Z,10.10
2022-11-05T15:39:41.348Z,10.10
2022-11-05T15:44:47.847Z,10.00
2022-11-05T15:50:15.132Z,10.00
2022-11-05T15:55:24.267Z,10.00
2022-11-05T16:00:30.548Z,9.90
2022-11-05T16:05:42.759Z,9.90
2022-11-05T16:10:51.438Z,9.90
2022-11-05T16:16:01.012Z,9.90
2022-11-05T16:21:11.446Z,9.80
2022-11-05T16:32:03.532Z,9.80
2022-11-05T16:37:11.563Z,9.80
2022-11-05T16:42:23.737Z,9.80
2022-11-05T16:47:27.527Z,9.70
2022-11-05T16:52:30.816Z,9.70
2022-11-05T16:57:35.793Z,9.70
2022-11-05T17:02:39.484Z,9.70
2022-11-05T17:07:43.462Z,9.60
2022-11-05T17:12:48.009Z,9.60
2022-11-05T17:17:53.437Z,9.60
2022-11-05T17:22:59.208Z,9.50
2022-11-05T17:28:04.488Z,9.40
2022-11-05T17:33:08.629Z,9.30
2022-11-05T17:38:13.263Z,9.30
2022-11-05T17:43:17.257Z,9.20
2022-11-05T17:48:22.517Z,9.20
2022-11-05T17:53:26.242Z,9.10
2022-11-05T17:58:31.069Z,9.10
2022-11-05T18:03:35.397Z,9.00
2022-11-05T18:08:39.787Z,8.90
2022-11-05T18:13:46.125Z,8.80
2022-11-05T18:18:50.077Z,8.70
2022-11-05T18:23:55.119Z,8.60
2022-11-05T18:29:05.596Z,8.50
2022-11-05T18:34:11.377Z,8.50
2022-11-05T18:39:22.280Z,8.40
2022-11-05T18:44:27.218Z,8.30
2022-11-05T18:49:32.518Z,8.30
2022-11-05T18:54:38.715Z,8.10
2022-11-05T18:59:47.389Z,8.00
2022-11-05T19:05:26.802Z,7.90
2022-11-05T19:10:18.056Z,7.80
2022-11-05T19:15:26.318Z,7.70
2022-11-05T19:20:36.628Z,7.60
2022-11-05T19:25:42.237Z,7.50
2022-11-05T19:30:46.844Z,7.30
2022-11-05T19:35:54.075Z,7.20
2022-11-05T19:40:59.389Z,7.10
2022-11-05T19:46:09.027Z,7.00
2022-11-05T19:51:20.348Z,6.90
2022-11-05T19:56:30.490Z,6.70
2022-11-05T20:01:36.901Z,6.70
2022-11-05T20:06:43.658Z,6.50
2022-11-05T20:11:59.546Z,6.40
2022-11-05T20:17:09.999Z,6.30
2022-11-05T20:22:15.949Z,6.20
2022-11-05T20:27:20.618Z,6.00
2022-11-05T20:32:25.581Z,5.90
2022-11-05T20:37:35.076Z,5.70
2022-11-05T20:42:41.648Z,5.60
2022-11-05T20:47:45.718Z,5.50
2022-11-05T20:52:52.208Z,5.40
2022-11-05T20:57:56.072Z,5.30
2022-11-05T21:03:02.521Z,5.20
2022-11-05T21:08:07.093Z,5.20
2022-11-05T21:13:12.207Z,5.20
2022-11-05T21:18:16.287Z,5.20
2022-11-05T21:23:22.723Z,5.10
2022-11-05T21:28:32.442Z,5.00
2022-11-05T21:33:36.691Z,4.90
2022-11-05T21:38:44.617Z,4.90
2022-11-05T21:43:49.537Z,4.80
2022-11-05T21:48:52.707Z,4.70
2022-11-05T21:54:14.946Z,4.60
2022-11-05T21:59:41.082Z,4.50
2022-11-05T22:04:47.208Z,4.30
2022-11-05T22:09:51.188Z,4.20
2022-11-05T22:14:55.047Z,4.20
2022-11-05T22:19:59.175Z,4.10
2022-11-05T22:25:03.010Z,4.10
2022-11-05T22:30:07.106Z,4.10
2022-11-05T22:35:10.912Z,4.00
2022-11-05T22:40:14.337Z,4.00
2022-11-05T22:45:17.708Z,4.00
2022-11-05T22:50:21.493Z,3.90
2022-11-05T22:55:24.897Z,3.90
2022-11-05T23:00:38.668Z,3.70
2022-11-05T23:05:42.368Z,3.60
2022-11-05T23:11:04.089Z,3.50
2022-11-05T23:16:26.408Z,3.40
2022-11-05T23:21:48.879Z,3.30
2022-11-05T23:26:52.361Z,3.30
2022-11-05T23:32:14.188Z,3.30
2022-11-05T23:37:35.907Z,3.20
2022-11-05T23:42:58.213Z,3.10
2022-11-05T23:48:32.577Z,2.90
2022-11-05T23:53:38.125Z,2.70
2022-11-05T23:58:42.648Z,2.50
